Time;durP1;ratioP1;P1;durP2;ratioP2;P2;SDS_P1;SDS_P2;PMS_P1;PMS_P2;Temp;Humidity;BMP_temperature;BMP_pressure;BME280_temperature;BME280_humidity;BME280_pressure;Samples;Min_cycle;Max_cycle;Signal;HPM_P1;HPM_P2
2023/05/08 00:00:56;;;;;;;12.37;11.18;;;22.50;59.10;;;;;;4715449;59;21501;-29
2023/05/08 00:06:02;;;;;;;12.35;11.18;;;22.50;59.10;;;;;;4730060;55;21594;-35
2023/05/08 00:11:03;;;;;;;12.05;10.73;;;22.50;59.10;;;;;;4715793;59;21035;-35
2023/05/08 00:16:04;;;;;;;12.30;11.10;;;22.50;59.20;;;;;;4870691;55;21534;-35
2023/05/08 00:21:06;;;;;;;12.23;11.02;;;22.50;59.10;;;;;;4772118;55;21139;-31
2023/05/08 00:26:06;;;;;;;12.30;11.10;;;22.50;59.10;;;;;;4782175;55;21079;-34
2023/05/08 00:31:07;;;;;;;11.50;10.40;;;22.50;59.20;;;;;;4840179;55;21466;-35
2023/05/08 00:36:11;;;;;;;12.20;11.00;;;22.50;59.10;;;;;;4738456;55;21063;-31
2023/05/08 00:41:12;;;;;;;12.27;11.07;;;22.50;59.10;;;;;;4771142;55;21084;-34
2023/05/08 00:46:14;;;;;;;11.40;10.30;;;22.50;59.20;;;;;;4724453;55;21007;-32
2023/05/08 00:51:15;;;;;;;12.50;11.30;;;22.50;59.30;;;;;;4736232;55;21507;-37
2023/05/08 00:56:19;;;;;;;11.45;10.27;;;22.50;59.30;;;;;;4715996;55;21031;-32
2023/05/08 01:01:20;;;;;;;11.50;10.40;;;22.50;59.30;;;;;;4740176;55;21035;-35
2023/05/08 01:06:21;;;;;;;11.10;10.10;;;22.50;59.30;;;;;;4837422;55;21079;-36
2023/05/08 01:11:43;;;;;;;11.60;10.50;;;22.50;59.30;;;;;;4715182;59;21040;-35
2023/05/08 01:17:00;;;;;;;11.90;10.70;;;22.50;59.30;;;;;;4744916;55;21027;-35
2023/05/08 01:23:13;;;;;;;11.55;10.45;;;22.50;59.30;;;;;;4716413;56;21063;-35
2023/05/08 01:28:52;;;;;;;11.32;10.30;;;22.50;60.00;;;;;;4851828;55;21055;-36
2023/05/08 01:34:09;;;;;;;10.98;9.88;;;22.50;59.40;;;;;;4759722;55;21012;-35
2023/05/08 01:39:19;;;;;;;10.68;9.68;;;22.50;59.40;;;;;;4767157;55;21105;-34
2023/05/08 01:44:27;;;;;;;10.52;9.52;;;22.50;59.40;;;;;;4715879;59;21496;-34
2023/05/08 01:49:36;;;;;;;11.35;10.25;;;22.50;59.40;;;;;;4795935;55;21139;-35
2023/05/08 01:54:47;;;;;;;11.02;9.88;;;22.50;59.40;;;;;;4836815;55;21043;-35
2023/05/08 01:59:50;;;;;;;11.12;10.02;;;22.50;59.50;;;;;;4715744;56;21529;-36
2023/05/08 02:04:52;;;;;;;11.32;10.23;;;22.50;59.50;;;;;;4783145;55;21071;-36
2023/05/08 02:09:54;;;;;;;10.32;9.32;;;22.50;59.50;;;;;;4764753;55;21060;-35
2023/05/08 02:14:56;;;;;;;11.63;10.52;;;22.50;59.50;;;;;;4831191;55;21343;-36
2023/05/08 02:19:59;;;;;;;10.93;9.82;;;22.50;59.50;;;;;;4833753;55;21068;-32
2023/05/08 02:25:01;;;;;;;10.90;9.80;;;22.50;59.50;;;;;;4720186;55;21128;-36
2023/05/08 02:30:02;;;;;;;10.32;9.32;;;22.50;59.50;;;;;;4764113;55;21119;-37
2023/05/08 02:35:05;;;;;;;10.82;9.82;;;22.50;59.60;;;;;;4715670;59;21035;-35
2023/05/08 02:40:09;;;;;;;10.52;9.52;;;22.50;59.50;;;;;;4829664;55;20998;-34
2023/05/08 02:45:11;;;;;;;10.65;9.65;;;22.50;59.60;;;;;;4771376;55;21561;-35
2023/05/08 02:50:31;;;;;;;10.88;9.88;;;22.50;59.60;;;;;;4809105;55;21581;-36
2023/05/08 02:55:59;;;;;;;10.27;9.27;;;22.50;59.60;;;;;;4736416;55;21032;-37
2023/05/08 03:02:34;;;;;;;10.15;9.15;;;22.50;59.60;;;;;;4816035;55;21000;-36
2023/05/08 03:07:39;;;;;;;10.23;9.23;;;22.50;59.60;;;;;;4725030;55;21000;-33
2023/05/08 03:12:45;;;;;;;10.63;9.57;;;22.50;59.70;;;;;;4752964;55;21011;-31
2023/05/08 03:17:48;;;;;;;10.15;9.15;;;22.50;59.70;;;;;;4747999;55;21102;-33
2023/05/08 03:22:52;;;;;;;10.48;9.48;;;22.50;59.70;;;;;;4773405;55;21131;-36
2023/05/08 03:27:54;;;;;;;10.25;9.25;;;22.50;59.70;;;;;;4881452;55;21023;-34
2023/05/08 03:32:57;;;;;;;10.70;9.70;;;22.50;59.70;;;;;;4800454;55;21385;-35
2023/05/08 03:37:58;;;;;;;10.10;9.15;;;22.50;59.80;;;;;;4715794;59;21012;-34
2023/05/08 03:43:00;;;;;;;10.25;9.35;;;22.50;59.80;;;;;;4775767;55;22027;-33
2023/05/08 03:48:06;;;;;;;9.82;8.85;;;22.50;59.80;;;;;;4749434;55;21068;-36
2023/05/08 03:53:09;;;;;;;9.87;8.97;;;22.50;59.80;;;;;;4739755;55;21127;-36
2023/05/08 03:59:08;;;;;;;9.75;8.77;;;22.50;59.80;;;;;;4722729;55;21019;-33
2023/05/08 04:04:38;;;;;;;9.88;8.95;;;22.50;59.80;;;;;;4715452;59;21112;-37
2023/05/08 04:16:32;;;;;;;9.70;8.80;;;22.50;59.80;;;;;;4727437;55;21577;-34
2023/05/08 04:21:34;;;;;;;;;;;22.50;59.90;;;;;;4735392;55;21557;-36
2023/05/08 04:26:36;;;;;;;9.82;8.93;;;22.50;60.00;;;;;;4939357;55;20194;-31
2023/05/08 04:31:39;;;;;;;9.38;8.40;;;22.50;60.00;;;;;;4715076;59;21036;-35
2023/05/08 04:36:40;;;;;;;10.27;9.27;;;22.50;60.00;;;;;;4896158;55;21015;-32
2023/05/08 04:41:41;;;;;;;9.95;9.05;;;22.50;60.00;;;;;;4779893;55;21087;-32
2023/05/08 04:46:41;;;;;;;9.77;8.82;;;22.50;60.10;;;;;;4718941;55;21486;-35
2023/05/08 04:51:42;;;;;;;9.85;8.95;;;22.50;60.10;;;;;;4734035;55;21039;-35
2023/05/08 04:56:43;;;;;;;9.68;8.77;;;22.50;60.10;;;;;;4769580;55;21004;-34
2023/05/08 05:01:46;;;;;;;9.05;8.25;;;22.50;60.10;;;;;;4736537;55;21150;-36
2023/05/08 05:06:47;;;;;;;8.98;8.07;;;22.50;60.10;;;;;;4748567;55;21569;-36
2023/05/08 05:11:48;;;;;;;9.00;8.10;;;22.50;60.20;;;;;;4841385;55;21364;-37
2023/05/08 05:16:49;;;;;;;9.73;8.82;;;22.50;60.20;;;;;;4732729;55;21067;-34
2023/05/08 05:21:49;;;;;;;9.90;8.95;;;22.50;60.20;;;;;;4770090;55;21015;-34
2023/05/08 05:26:50;;;;;;;11.25;10.15;;;22.50;60.20;;;;;;4715609;59;21462;-33
2023/05/08 05:31:51;;;;;;;10.55;9.52;;;22.50;60.80;;;;;;4769942;55;21420;-36
2023/05/08 05:36:52;;;;;;;11.10;10.00;;;22.50;60.20;;;;;;4719111;55;21480;-34
2023/05/08 05:41:53;;;;;;;12.18;10.98;;;22.50;60.20;;;;;;4720411;55;20977;-35
2023/05/08 05:46:54;;;;;;;10.25;9.25;;;22.50;60.20;;;;;;4781135;55;21505;-36
2023/05/08 05:51:55;;;;;;;11.43;10.32;;;22.50;60.20;;;;;;4825594;55;21024;-33
2023/05/08 05:56:56;;;;;;;12.02;10.77;;;22.50;60.30;;;;;;4716496;55;21537;-35
2023/05/08 06:01:57;;;;;;;11.12;10.05;;;22.50;60.30;;;;;;4732462;55;21055;-35
2023/05/08 06:06:58;;;;;;;11.27;10.18;;;22.50;60.20;;;;;;4758680;55;21003;-38
2023/05/08 06:11:59;;;;;;;11.12;10.02;;;22.50;60.40;;;;;;4720082;55;21589;-35
2023/05/08 06:17:00;;;;;;;10.73;9.63;;;22.50;60.30;;;;;;4742629;55;21692;-35
2023/05/08 06:22:01;;;;;;;12.00;10.80;;;22.50;60.30;;;;;;4713655;59;21032;-37
2023/05/08 06:27:02;;;;;;;11.43;10.32;;;22.50;60.30;;;;;;4716912;55;21501;-32
2023/05/08 06:32:03;;;;;;;11.60;10.38;;;22.50;60.90;;;;;;4743881;55;21176;-31
2023/05/08 06:37:04;;;;;;;11.25;10.13;;;22.50;60.40;;;;;;4736161;55;21074;-33
2023/05/08 06:42:05;;;;;;;11.63;10.43;;;22.50;60.30;;;;;;4790879;55;21590;-33
2023/05/08 06:47:07;;;;;;;12.00;10.75;;;22.50;60.30;;;;;;4714121;59;21477;-35
2023/05/08 06:52:08;;;;;;;11.15;9.95;;;22.50;60.30;;;;;;4717596;55;21087;-37
2023/05/08 06:57:10;;;;;;;11.30;10.10;;;22.50;60.30;;;;;;4820493;55;21569;-37
2023/05/08 07:02:11;;;;;;;11.75;10.55;;;22.50;60.40;;;;;;4838964;55;21497;-36
2023/05/08 07:07:13;;;;;;;11.65;10.45;;;22.50;60.30;;;;;;4713121;55;21020;-36
2023/05/08 07:12:15;;;;;;;11.50;10.30;;;22.50;60.30;;;;;;4713990;59;21617;-35
2023/05/08 07:17:16;;;;;;;11.18;10.07;;;22.50;60.30;;;;;;4722763;55;21007;-32
2023/05/08 07:22:17;;;;;;;11.02;9.93;;;22.50;60.40;;;;;;4816465;55;21505;-36
2023/05/08 07:27:19;;;;;;;11.35;10.10;;;22.50;60.40;;;;;;4729120;55;21055;-37
2023/05/08 07:32:20;;;;;;;12.63;11.32;;;22.50;60.30;;;;;;4770108;55;21463;-36
2023/05/08 07:37:21;;;;;;;12.32;11.05;;;22.50;60.30;;;;;;4732894;55;21008;-35
2023/05/08 07:42:22;;;;;;;12.77;11.45;;;22.50;60.30;;;;;;4744444;55;21481;-33
2023/05/08 07:47:27;;;;;;;13.43;11.10;;;22.50;60.40;;;;;;4747392;55;21147;-31
2023/05/08 07:52:28;;;;;;;12.77;11.02;;;22.50;60.30;;;;;;4881133;55;21051;-33
2023/05/08 07:57:36;;;;;;;11.88;10.68;;;22.50;60.30;;;;;;4730290;55;21888;-35
2023/05/08 08:02:37;;;;;;;13.07;11.68;;;22.50;60.30;;;;;;4802566;55;21484;-37
2023/05/08 08:07:38;;;;;;;12.68;11.35;;;22.50;60.30;;;;;;4770719;55;21071;-35
2023/05/08 08:12:39;;;;;;;12.30;11.02;;;22.50;60.30;;;;;;4765795;55;21522;-35
2023/05/08 08:17:40;;;;;;;13.62;11.77;;;22.50;60.30;;;;;;4752674;55;21079;-32
2023/05/08 08:22:41;;;;;;;12.93;11.63;;;22.50;60.30;;;;;;4715715;56;21087;-38
2023/05/08 08:27:41;;;;;;;12.88;11.55;;;22.50;60.40;;;;;;4723503;55;21011;-36
2023/05/08 08:32:42;;;;;;;12.73;10.95;;;22.50;60.30;;;;;;4715980;55;21055;-35
2023/05/08 08:37:43;;;;;;;12.80;11.50;;;22.50;60.40;;;;;;4752577;55;21007;-32
2023/05/08 08:42:45;;;;;;;12.75;11.43;;;22.50;60.30;;;;;;4892818;55;21522;-36
2023/05/08 08:47:49;;;;;;;13.73;12.23;;;22.50;60.30;;;;;;4773423;55;21477;-34
2023/05/08 08:53:11;;;;;;;14.18;12.68;;;22.50;60.30;;;;;;4719599;55;21123;-33
2023/05/08 08:58:33;;;;;;;14.52;13.02;;;22.50;60.30;;;;;;4715870;59;21466;-35
2023/05/08 09:03:34;;;;;;;14.63;12.65;;;22.50;60.30;;;;;;4752545;55;21577;-35
2023/05/08 09:08:36;;;;;;;13.50;12.10;;;22.50;60.30;;;;;;4715888;59;21043;-34
2023/05/08 09:13:37;;;;;;;14.77;12.98;;;22.50;60.20;;;;;;4715042;59;21108;-37
2023/05/08 09:18:38;;;;;;;14.50;12.95;;;22.50;60.20;;;;;;4732232;55;21031;-36
2023/05/08 09:23:58;;;;;;;14.82;13.27;;;22.50;60.30;;;;;;4773291;55;21048;-35
2023/05/08 09:29:16;;;;;;;15.60;13.15;;;22.50;60.30;;;;;;4798362;55;20984;-35
2023/05/08 09:34:29;;;;;;;14.93;13.32;;;22.50;60.20;;;;;;4723637;55;21055;-34
2023/05/08 09:39:30;;;;;;;15.15;13.55;;;22.50;60.30;;;;;;4714437;59;22178;-38
2023/05/08 09:44:51;;;;;;;15.10;13.50;;;22.50;60.20;;;;;;4715397;59;21086;-36
2023/05/08 09:50:06;;;;;;;15.60;13.85;;;22.50;60.20;;;;;;4715840;56;21030;-37
2023/05/08 09:55:09;;;;;;;21.23;17.65;;;22.50;60.20;;;;;;4752872;55;21569;-33
2023/05/08 10:00:11;;;;;;;18.90;16.35;;;22.60;60.30;;;;;;4765095;55;21087;-35
2023/05/08 10:05:33;;;;;;;20.33;17.37;;;22.50;60.10;;;;;;4790590;55;20999;-37
2023/05/08 10:10:35;;;;;;;20.40;17.85;;;22.60;60.20;;;;;;4782759;55;21582;-35
2023/05/08 10:15:38;;;;;;;19.75;17.08;;;22.60;60.30;;;;;;4770727;55;22184;-31
2023/05/08 10:20:43;;;;;;;22.25;18.60;;;22.70;60.30;;;;;;4733903;55;21087;-36
2023/05/08 10:25:51;;;;;;;22.73;18.25;;;22.60;60.20;;;;;;4748004;55;21146;-28
2023/05/08 10:30:56;;;;;;;22.10;18.73;;;22.70;60.20;;;;;;4714119;55;21051;-28
2023/05/08 10:36:00;;;;;;;22.95;19.87;;;22.70;60.10;;;;;;4737304;55;21135;-28
2023/05/08 10:41:01;;;;;;;23.92;19.80;;;22.70;60.40;;;;;;4750921;55;21052;-35
2023/05/08 10:46:14;;;;;;;24.70;19.77;;;22.80;60.60;;;;;;4713210;59;21367;-32
2023/05/08 10:51:43;;;;;;;24.40;19.30;;;22.80;60.80;;;;;;4732962;55;21038;-34
2023/05/08 10:56:43;;;;;;;24.12;19.37;;;22.90;61.00;;;;;;4713959;55;21039;-36
2023/05/08 11:01:48;;;;;;;25.27;21.25;;;22.90;61.20;;;;;;4714254;55;21011;-31
2023/05/08 11:06:51;;;;;;;26.12;20.45;;;22.90;61.40;;;;;;4787644;55;21592;-34
2023/05/08 11:12:06;;;;;;;27.65;20.92;;;22.90;61.40;;;;;;4728731;55;21544;-33
2023/05/08 11:17:09;;;;;;;23.55;18.10;;;23.00;61.60;;;;;;4722309;55;21007;-30
2023/05/08 11:22:15;;;;;;;24.27;21.08;;;23.00;62.60;;;;;;4733085;55;21048;-36
2023/05/08 11:27:17;;;;;;;25.30;20.53;;;23.00;62.00;;;;;;4713083;59;21035;-30
2023/05/08 11:32:18;;;;;;;26.12;20.60;;;23.00;62.20;;;;;;4721333;55;21088;-36
2023/05/08 11:37:20;;;;;;;24.17;21.08;;;23.00;62.30;;;;;;4756885;55;21499;-36
2023/05/08 11:42:39;;;;;;;25.00;20.75;;;23.10;62.40;;;;;;4724104;55;21043;-34
2023/05/08 11:47:44;;;;;;;27.35;21.40;;;23.10;62.40;;;;;;4717227;55;21011;-33
2023/05/08 11:52:45;;;;;;;26.30;21.17;;;23.10;62.80;;;;;;4753925;55;21618;-31
2023/05/08 11:57:46;;;;;;;22.65;20.25;;;23.10;62.50;;;;;;4729206;55;21017;-30
2023/05/08 12:02:49;;;;;;;24.15;21.00;;;23.10;62.50;;;;;;4737100;55;21007;-30
2023/05/08 12:07:50;;;;;;;31.20;22.60;;;23.10;62.60;;;;;;4726367;55;21079;-35
2023/05/08 12:12:51;;;;;;;25.73;22.15;;;23.10;62.60;;;;;;4754676;55;21171;-37
2023/05/08 12:18:04;;;;;;;26.05;22.45;;;23.20;62.70;;;;;;4730467;55;21105;-34
2023/05/08 12:23:11;;;;;;;27.33;22.08;;;23.20;62.70;;;;;;4713882;55;21617;-32
2023/05/08 12:28:12;;;;;;;26.20;22.33;;;23.20;62.80;;;;;;4721847;55;21047;-37
2023/05/08 12:33:13;;;;;;;29.55;22.35;;;23.20;62.80;;;;;;4724161;55;22039;-36
2023/05/08 12:38:15;;;;;;;27.48;23.05;;;23.20;62.90;;;;;;4744792;55;21092;-30
2023/05/08 12:43:15;;;;;;;30.25;23.15;;;23.20;62.90;;;;;;4744674;55;21501;-35
2023/05/08 12:48:16;;;;;;;31.27;23.77;;;23.20;63.00;;;;;;4713674;55;21047;-30
2023/05/08 12:53:19;;;;;;;28.80;23.52;;;23.20;63.60;;;;;;4755722;55;21604;-31
2023/05/08 12:58:26;;;;;;;27.15;22.15;;;23.20;63.00;;;;;;4713160;59;21027;-33
2023/05/08 13:03:28;;;;;;;26.80;23.15;;;23.20;63.20;;;;;;4780722;55;21099;-30
2023/05/08 13:08:37;;;;;;;27.48;22.85;;;23.20;63.10;;;;;;4738292;55;21060;-31
2023/05/08 13:13:38;;;;;;;28.48;23.17;;;23.20;63.20;;;;;;4718565;55;21175;-28
2023/05/08 13:18:39;;;;;;;27.58;23.48;;;23.20;63.20;;;;;;4747531;55;21031;-35
2023/05/08 13:23:42;;;;;;;31.25;24.75;;;23.20;63.30;;;;;;4713124;59;21621;-35
2023/05/08 13:28:43;;;;;;;28.05;23.77;;;23.30;63.50;;;;;;4742267;55;21482;-33
2023/05/08 13:33:43;;;;;;;27.70;24.12;;;23.30;63.40;;;;;;4733217;55;21032;-34
2023/05/08 13:38:44;;;;;;;29.87;23.77;;;23.30;63.40;;;;;;4727598;55;21224;-36
2023/05/08 13:43:46;;;;;;;273.27;240.20;;;23.30;63.70;;;;;;4734057;55;21087;-33
2023/05/08 13:48:47;;;;;;;123.85;101.55;;;23.20;60.30;;;;;;4752371;55;21153;-32
2023/05/08 13:53:48;;;;;;;159.68;130.85;;;23.20;57.50;;;;;;4712284;59;21095;-34
2023/05/08 13:58:49;;;;;;;155.40;126.70;;;23.20;58.10;;;;;;4729160;55;21032;-33
2023/05/08 14:03:50;;;;;;;140.80;119.57;;;23.10;58.20;;;;;;4714163;56;22157;-33
2023/05/08 14:08:50;;;;;;;141.70;115.72;;;23.10;58.20;;;;;;4751844;55;21111;-38
2023/05/08 14:13:52;;;;;;;210.90;170.90;;;23.10;58.30;;;;;;4712738;55;21024;-34
2023/05/08 14:18:52;;;;;;;192.73;155.23;;;23.10;57.60;;;;;;4753828;55;21498;-34
2023/05/08 14:23:53;;;;;;;194.98;161.62;;;23.00;58.30;;;;;;4765604;55;21039;-36
2023/05/08 14:28:54;;;;;;;202.87;169.62;;;23.00;58.00;;;;;;4713908;59;21572;-34
2023/05/08 14:33:55;;;;;;;205.55;168.62;;;23.00;58.20;;;;;;4713469;59;21522;-36
2023/05/08 14:38:57;;;;;;;208.65;169.32;;;23.00;58.50;;;;;;4741947;55;21637;-36
2023/05/08 14:43:58;;;;;;;195.98;163.62;;;22.90;58.60;;;;;;4736916;55;20980;-36
2023/05/08 14:48:59;;;;;;;191.43;161.00;;;22.90;58.80;;;;;;4774665;55;21060;-37
2023/05/08 14:54:00;;;;;;;196.20;159.48;;;22.90;59.00;;;;;;4715032;59;21537;-34
2023/05/08 14:59:01;;;;;;;178.07;147.48;;;22.90;59.10;;;;;;4725376;55;21020;-36
2023/05/08 15:04:01;;;;;;;175.50;146.10;;;22.90;59.80;;;;;;4743798;55;21551;-34
2023/05/08 15:09:02;;;;;;;166.52;140.68;;;22.90;59.30;;;;;;4751446;55;21087;-37
2023/05/08 15:14:03;;;;;;;167.27;140.88;;;22.90;59.40;;;;;;4720827;55;21565;-31
2023/05/08 15:19:04;;;;;;;162.37;137.00;;;22.80;59.40;;;;;;4785124;55;21048;-36
2023/05/08 15:24:06;;;;;;;168.73;139.43;;;22.80;59.50;;;;;;4754834;55;21613;-33
2023/05/08 15:29:07;;;;;;;155.87;134.02;;;22.90;59.50;;;;;;4744035;55;21067;-36
2023/05/08 15:34:08;;;;;;;156.55;133.30;;;22.80;59.60;;;;;;4714675;59;21103;-36
2023/05/08 15:39:08;;;;;;;151.20;130.27;;;22.80;60.30;;;;;;4811558;55;21035;-37
2023/05/08 15:44:09;;;;;;;148.20;127.10;;;22.80;59.60;;;;;;4744145;55;21027;-33
2023/05/08 15:49:10;;;;;;;146.55;127.25;;;22.80;59.70;;;;;;4783834;55;21051;-35
2023/05/08 15:54:11;;;;;;;139.00;123.65;;;22.80;59.70;;;;;;4753549;55;21397;-36
2023/05/08 15:59:12;;;;;;;143.57;122.35;;;22.80;59.80;;;;;;4784919;55;21801;-33
2023/05/08 16:04:13;;;;;;;135.37;116.78;;;22.80;59.80;;;;;;4735848;55;21078;-36
2023/05/08 16:09:13;;;;;;;136.10;116.70;;;22.70;59.80;;;;;;4715718;59;21514;-33
2023/05/08 16:14:15;;;;;;;141.62;119.28;;;22.80;59.90;;;;;;4790363;55;21103;-31
2023/05/08 16:19:16;;;;;;;132.07;117.03;;;22.80;60.00;;;;;;4745546;55;21570;-34
2023/05/08 16:24:17;;;;;;;134.35;116.37;;;22.70;60.00;;;;;;4728257;55;21700;-34
2023/05/08 16:29:18;;;;;;;132.68;113.82;;;22.80;60.00;;;;;;4715549;59;21309;-35
2023/05/08 16:34:19;;;;;;;128.30;111.25;;;22.70;60.00;;;;;;4733276;55;21040;-34
2023/05/08 16:39:20;;;;;;;124.00;108.68;;;22.70;60.10;;;;;;4759604;55;21147;-34
2023/05/08 16:44:21;;;;;;;129.52;111.37;;;22.80;60.10;;;;;;4746189;55;20987;-35
2023/05/08 16:49:22;;;;;;;120.10;106.47;;;22.70;60.50;;;;;;4789473;55;21023;-36
2023/05/08 16:54:22;;;;;;;124.72;108.55;;;22.80;60.20;;;;;;4766812;55;21046;-36
2023/05/08 16:59:26;;;;;;;119.95;106.78;;;22.70;60.10;;;;;;4738312;55;21121;-34
2023/05/08 17:04:27;;;;;;;114.55;100.43;;;22.70;60.10;;;;;;4772937;55;21023;-37
2023/05/08 17:09:28;;;;;;;111.80;99.30;;;22.70;60.10;;;;;;4737248;55;21107;-37
2023/05/08 17:14:29;;;;;;;114.93;100.60;;;22.80;60.20;;;;;;4718324;55;21510;-38
2023/05/08 17:19:30;;;;;;;116.85;103.62;;;22.70;60.20;;;;;;4749556;55;21055;-36
2023/05/08 17:24:31;;;;;;;113.80;98.78;;;22.70;60.20;;;;;;4726784;55;21513;-37
2023/05/08 17:29:33;;;;;;;112.40;100.10;;;22.80;60.30;;;;;;4767915;55;21213;-35
2023/05/08 17:34:34;;;;;;;113.88;98.35;;;22.70;60.20;;;;;;4741108;55;21043;-36
2023/05/08 17:39:34;;;;;;;111.22;98.80;;;22.70;60.30;;;;;;4720511;55;21058;-36
2023/05/08 17:44:35;;;;;;;111.97;98.30;;;22.70;60.30;;;;;;4870900;55;21103;-35
2023/05/08 17:49:36;;;;;;;109.22;97.22;;;22.70;60.30;;;;;;4715314;59;21098;-36
2023/05/08 17:54:37;;;;;;;109.28;95.62;;;22.70;60.40;;;;;;4726831;55;21031;-36
2023/05/08 17:59:38;;;;;;;109.95;95.93;;;22.70;60.30;;;;;;4742452;55;21313;-36
2023/05/08 18:04:39;;;;;;;108.20;93.55;;;22.70;60.30;;;;;;4739950;55;21328;-36
2023/05/08 18:09:39;;;;;;;113.75;96.07;;;22.80;60.50;;;;;;4715569;59;21447;-34
2023/05/08 18:14:42;;;;;;;103.03;89.70;;;22.70;60.40;;;;;;4758994;55;21593;-37
2023/05/08 18:19:43;;;;;;;103.05;91.72;;;22.70;60.40;;;;;;4734449;55;21644;-35
2023/05/08 18:24:44;;;;;;;104.70;91.28;;;22.80;60.40;;;;;;4750191;55;21127;-37
2023/05/08 18:29:45;;;;;;;107.20;91.93;;;22.70;60.40;;;;;;4715701;59;21586;-36
2023/05/08 18:34:46;;;;;;;107.18;90.28;;;22.70;60.40;;;;;;4777447;55;21023;-35
2023/05/08 18:39:47;;;;;;;102.95;88.18;;;22.70;60.40;;;;;;4734484;55;21047;-36
2023/05/08 18:44:48;;;;;;;104.87;90.75;;;22.70;60.40;;;;;;4717719;55;21435;-34
2023/05/08 18:49:51;;;;;;;101.20;89.80;;;22.70;60.50;;;;;;4715556;56;21428;-36
2023/05/08 18:54:53;;;;;;;102.53;87.43;;;22.70;60.50;;;;;;4725966;55;21493;-34
2023/05/08 18:59:54;;;;;;;99.35;86.97;;;22.80;60.50;;;;;;4785407;55;21007;-37
2023/05/08 19:04:54;;;;;;;96.75;83.55;;;22.70;60.50;;;;;;4715639;59;21550;-31
2023/05/08 19:09:58;;;;;;;98.40;84.15;;;22.70;60.50;;;;;;4763523;55;21036;-35
2023/05/08 19:14:59;;;;;;;93.53;80.90;;;22.70;60.50;;;;;;4715664;59;21079;-36
2023/05/08 19:20:00;;;;;;;95.90;80.97;;;22.70;60.60;;;;;;4726869;55;21007;-36
2023/05/08 19:25:01;;;;;;;95.32;84.60;;;22.70;60.50;;;;;;4717610;55;21146;-36
2023/05/08 19:30:03;;;;;;;91.47;80.85;;;22.70;60.60;;;;;;4734942;55;21027;-34
2023/05/08 19:35:04;;;;;;;93.47;82.05;;;22.70;60.60;;;;;;4777976;55;21660;-36
2023/05/08 19:40:06;;;;;;;90.03;78.32;;;22.70;61.20;;;;;;4826198;55;21083;-37
2023/05/08 19:45:09;;;;;;;90.75;78.03;;;22.70;60.60;;;;;;4753613;55;20991;-35
2023/05/08 19:50:16;;;;;;;90.95;77.93;;;22.70;60.50;;;;;;4845049;55;21077;-35
2023/05/08 19:55:17;;;;;;;89.55;76.90;;;22.70;60.60;;;;;;4737948;55;21841;-36
2023/05/08 20:00:18;;;;;;;88.40;77.72;;;22.70;60.60;;;;;;4715461;59;21493;-36
2023/05/08 20:05:20;;;;;;;90.80;79.30;;;22.70;60.60;;;;;;4825617;55;21007;-37
2023/05/08 20:10:21;;;;;;;88.07;74.30;;;22.70;60.60;;;;;;4766152;55;21490;-35
2023/05/08 20:15:22;;;;;;;86.57;75.65;;;22.70;60.50;;;;;;4715734;59;21071;-37
2023/05/08 20:20:23;;;;;;;84.40;72.28;;;22.70;60.60;;;;;;4780175;55;21533;-36
2023/05/08 20:25:24;;;;;;;86.18;73.80;;;22.70;60.50;;;;;;4785020;55;21052;-34
2023/05/08 20:30:25;;;;;;;83.82;74.62;;;22.70;60.50;;;;;;4808775;55;21513;-35
2023/05/08 20:35:25;;;;;;;86.10;73.70;;;22.70;60.50;;;;;;4722970;55;21003;-36
2023/05/08 20:40:27;;;;;;;81.32;70.85;;;22.70;60.50;;;;;;4735414;55;21117;-34
2023/05/08 20:45:27;;;;;;;80.45;70.10;;;22.70;60.60;;;;;;4790849;55;21075;-36
2023/05/08 20:50:28;;;;;;;81.07;70.85;;;22.70;60.50;;;;;;4715890;59;21537;-36
2023/05/08 20:55:29;;;;;;;79.47;69.93;;;22.70;60.50;;;;;;4715566;56;21052;-34
2023/05/08 21:00:30;;;;;;;76.45;66.60;;;22.70;60.50;;;;;;4720408;55;21474;-36
2023/05/08 21:05:31;;;;;;;79.45;67.72;;;22.70;60.50;;;;;;4779399;55;21541;-35
2023/05/08 21:10:32;;;;;;;79.22;67.10;;;22.70;60.50;;;;;;4774468;55;21071;-36
2023/05/08 21:15:33;;;;;;;75.22;65.82;;;22.70;60.40;;;;;;4715782;56;21541;-36
2023/05/08 21:20:34;;;;;;;74.97;65.50;;;22.70;60.50;;;;;;4727476;55;21015;-36
2023/05/08 21:25:35;;;;;;;74.40;65.12;;;22.70;60.50;;;;;;4726536;55;21063;-35
2023/05/08 21:30:36;;;;;;;71.12;61.37;;;22.70;60.40;;;;;;4730343;55;21573;-36
2023/05/08 21:35:37;;;;;;;69.28;61.33;;;22.70;60.50;;;;;;4745431;55;21027;-33
2023/05/08 21:40:38;;;;;;;69.80;61.53;;;22.70;60.50;;;;;;4722420;55;21478;-30
2023/05/08 21:45:39;;;;;;;70.50;61.37;;;22.70;60.40;;;;;;4722432;55;21007;-36
2023/05/08 21:50:40;;;;;;;69.05;60.30;;;22.70;60.50;;;;;;4761221;55;21019;-34
2023/05/08 21:55:40;;;;;;;69.60;59.92;;;22.70;60.40;;;;;;4755292;55;21084;-33
2023/05/08 22:00:42;;;;;;;67.37;59.50;;;22.70;60.40;;;;;;4797421;55;21035;-34
2023/05/08 22:05:43;;;;;;;67.37;58.55;;;22.70;60.50;;;;;;4749101;55;21047;-35
2023/05/08 22:10:45;;;;;;;66.85;57.60;;;22.70;60.40;;;;;;4840774;55;21138;-31
2023/05/08 22:15:46;;;;;;;71.57;59.45;;;22.70;60.50;;;;;;4769680;55;21545;-35
2023/05/08 22:20:46;;;;;;;66.25;58.35;;;22.70;60.40;;;;;;4787445;55;21563;-36
2023/05/08 22:25:47;;;;;;;67.37;57.83;;;22.70;60.40;;;;;;4731645;55;21090;-34
2023/05/08 22:30:48;;;;;;;63.08;55.15;;;22.70;60.40;;;;;;4715692;59;21076;-33
2023/05/08 22:35:49;;;;;;;60.63;53.63;;;22.70;60.30;;;;;;4786197;55;20995;-32
2023/05/08 22:40:51;;;;;;;60.92;53.15;;;22.70;60.30;;;;;;4715844;56;21620;-31
2023/05/08 22:45:53;;;;;;;61.37;54.67;;;22.70;60.30;;;;;;4767018;55;21477;-35
2023/05/08 22:50:53;;;;;;;61.67;54.13;;;22.60;60.30;;;;;;4761252;55;21036;-29
2023/05/08 22:55:54;;;;;;;59.28;51.47;;;22.70;60.30;;;;;;4715878;59;21099;-34
2023/05/08 23:00:55;;;;;;;60.95;53.60;;;22.60;60.10;;;;;;4752670;55;21016;-34
2023/05/08 23:05:56;;;;;;;59.55;52.97;;;22.60;60.20;;;;;;4715490;59;21577;-35
2023/05/08 23:10:57;;;;;;;59.50;52.83;;;22.60;60.20;;;;;;4730338;55;21155;-36
2023/05/08 23:15:58;;;;;;;59.33;50.25;;;22.60;60.10;;;;;;4793864;55;21031;-34
2023/05/08 23:21:05;;;;;;;57.25;51.08;;;22.60;60.10;;;;;;4715884;55;21011;-33
2023/05/08 23:26:05;;;;;;;;;;;22.70;60.30;;;;;;4730763;55;21553;-37
2023/05/08 23:31:06;;;;;;;52.55;46.95;;;22.60;60.20;;;;;;4730753;55;20057;-36
2023/05/08 23:36:08;;;;;;;55.33;48.35;;;22.70;60.20;;;;;;4728139;55;21542;-35
2023/05/08 23:41:10;;;;;;;54.13;47.25;;;22.70;60.10;;;;;;4803822;55;21040;-36
2023/05/08 23:46:11;;;;;;;53.95;46.92;;;22.60;60.10;;;;;;4715730;55;21506;-37
2023/05/08 23:51:12;;;;;;;54.63;45.17;;;22.60;60.10;;;;;;4777200;55;21502;-36
2023/05/08 23:56:13;;;;;;;51.88;46.17;;;22.60;60.10;;;;;;4744271;55;21031;-35
